createdAt,value
2022-10-05T00:01:29.040Z,0.30
2022-10-05T00:04:18.628Z,0.47
2022-10-05T00:06:59.174Z,0.60
2022-10-05T00:09:32.904Z,0.60
2022-10-05T00:12:21.242Z,0.47
2022-10-05T00:14:55.437Z,0.40
2022-10-05T00:17:28.186Z,0.40
2022-10-05T00:19:57.878Z,0.20
2022-10-05T00:22:33.890Z,0.40
2022-10-05T00:25:19.603Z,0.50
2022-10-05T00:27:56.703Z,0.40
2022-10-05T00:30:30.740Z,0.30
2022-10-05T00:33:00.298Z,0.30
2022-10-05T00:35:30.795Z,0.57
2022-10-05T00:38:00.245Z,0.60
2022-10-05T00:41:06.312Z,0.47
2022-10-05T00:43:57.939Z,0.40
2022-10-05T00:46:47.720Z,0.30
2022-10-05T00:49:52.071Z,0.40
2022-10-05T00:52:31.966Z,0.40
2022-10-05T00:55:29.784Z,0.40
2022-10-05T00:58:37.027Z,0.40
2022-10-05T01:01:20.312Z,0.40
2022-10-05T01:04:33.037Z,0.30
2022-10-05T01:07:19.261Z,0.50
2022-10-05T01:10:01.922Z,0.40
2022-10-05T01:12:47.969Z,0.50
2022-10-05T01:15:36.391Z,0.50
2022-10-05T01:18:22.188Z,0.57
2022-10-05T01:21:20.359Z,0.40
2022-10-05T01:24:41.303Z,0.53
2022-10-05T01:27:44.331Z,0.37
2022-10-05T01:30:20.712Z,0.53
2022-10-05T01:33:00.884Z,0.50
2022-10-05T01:35:57.630Z,0.30
2022-10-05T01:38:55.004Z,0.30
2022-10-05T01:41:35.281Z,0.40
2022-10-05T01:44:27.733Z,0.30
2022-10-05T01:47:09.914Z,0.30
2022-10-05T01:50:01.650Z,0.30
2022-10-05T01:52:50.564Z,0.37
2022-10-05T01:55:45.637Z,0.43
2022-10-05T01:58:22.737Z,0.60
2022-10-05T02:01:11.263Z,0.37
2022-10-05T02:03:48.035Z,0.60
2022-10-05T02:06:24.728Z,0.30
2022-10-05T02:09:21.530Z,0.50
2022-10-05T02:12:02.313Z,0.43
2022-10-05T02:14:48.267Z,0.47
2022-10-05T02:17:22.480Z,0.37
2022-10-05T02:20:01.904Z,0.40
2022-10-05T02:22:38.886Z,0.30
2022-10-05T02:25:19.009Z,0.40
2022-10-05T02:28:10.872Z,0.50
2022-10-05T02:30:59.876Z,0.50
2022-10-05T02:33:32.852Z,0.43
2022-10-05T02:36:16.019Z,0.50
2022-10-05T02:39:10.612Z,0.50
2022-10-05T02:42:06.892Z,0.40
2022-10-05T02:45:08.956Z,0.30
2022-10-05T02:47:55.045Z,0.50
2022-10-05T02:50:44.166Z,0.47
2022-10-05T02:53:27.203Z,0.40
2022-10-05T02:56:22.571Z,0.63
2022-10-05T02:59:17.076Z,0.30
2022-10-05T03:02:03.097Z,0.40
2022-10-05T03:05:28.648Z,0.50
2022-10-05T03:08:17.346Z,0.47
2022-10-05T03:11:13.815Z,0.57
2022-10-05T03:13:50.801Z,0.40
2022-10-05T03:16:30.751Z,0.93
2022-10-05T03:19:09.008Z,0.80
2022-10-05T03:21:51.438Z,0.60
2022-10-05T03:24:41.984Z,0.67
2022-10-05T03:27:35.541Z,0.70
2022-10-05T03:30:22.738Z,0.50
2022-10-05T03:33:24.860Z,0.43
2022-10-05T03:36:24.411Z,0.50
2022-10-05T03:39:16.787Z,0.60
2022-10-05T03:42:02.621Z,0.40
2022-10-05T03:44:59.302Z,0.70
2022-10-05T03:47:55.641Z,0.63
2022-10-05T03:51:02.037Z,0.70
2022-10-05T03:53:44.878Z,0.50
2022-10-05T03:56:24.366Z,0.50
2022-10-05T03:59:01.142Z,0.60
2022-10-05T04:01:44.279Z,0.80
2022-10-05T04:04:36.404Z,0.60
2022-10-05T04:07:09.101Z,0.50
2022-10-05T04:09:49.133Z,0.80
2022-10-05T04:12:38.196Z,0.40
2022-10-05T04:15:33.037Z,0.80
2022-10-05T04:18:07.086Z,0.60
2022-10-05T04:20:46.860Z,0.50
2022-10-05T04:23:23.602Z,0.80
2022-10-05T04:25:57.654Z,0.50
2022-10-05T04:28:43.798Z,0.80
2022-10-05T04:31:21.030Z,0.63
2022-10-05T04:33:55.107Z,0.50
2022-10-05T04:36:35.154Z,0.80
2022-10-05T04:39:20.872Z,0.60
2022-10-05T04:42:24.654Z,0.40
2022-10-05T04:45:17.716Z,0.73
2022-10-05T04:48:12.823Z,0.40
2022-10-05T04:50:55.804Z,0.60
2022-10-05T04:53:38.457Z,0.50
2022-10-05T04:56:21.243Z,0.50
2022-10-05T04:59:24.846Z,0.50
2022-10-05T05:02:24.356Z,0.40
2022-10-05T05:05:19.502Z,0.57
2022-10-05T05:08:04.871Z,0.43
2022-10-05T05:11:15.143Z,0.40
2022-10-05T05:14:26.355Z,0.50
2022-10-05T05:17:29.698Z,0.60
2022-10-05T05:20:33.215Z,0.50
2022-10-05T05:23:26.774Z,0.50
2022-10-05T05:26:15.924Z,0.40
2022-10-05T05:29:06.690Z,0.60
2022-10-05T05:31:52.752Z,0.50
2022-10-05T05:34:44.655Z,0.50
2022-10-05T05:37:47.171Z,0.30
2022-10-05T05:40:30.128Z,0.53
2022-10-05T05:43:19.025Z,0.50
2022-10-05T05:46:01.505Z,0.50
2022-10-05T05:48:48.285Z,0.40
2022-10-05T05:51:40.441Z,0.50
2022-10-05T05:54:22.732Z,0.50
2022-10-05T05:57:28.269Z,0.73
2022-10-05T06:00:31.399Z,0.57
2022-10-05T06:03:26.716Z,0.40
2022-10-05T06:06:03.366Z,0.50
2022-10-05T06:08:58.230Z,0.60
2022-10-05T06:11:40.933Z,0.50
2022-10-05T06:14:35.997Z,0.70
2022-10-05T06:17:21.758Z,0.60
2022-10-05T06:20:01.214Z,0.50
2022-10-05T06:22:39.057Z,0.50
2022-10-05T06:25:38.739Z,0.70
2022-10-05T06:28:19.686Z,0.87
2022-10-05T06:31:17.978Z,0.80
2022-10-05T06:33:57.652Z,0.60
2022-10-05T06:36:52.332Z,0.70
2022-10-05T06:39:44.076Z,0.70
2022-10-05T06:42:53.796Z,0.70
2022-10-05T06:45:42.640Z,0.70
2022-10-05T06:48:16.699Z,0.50
2022-10-05T06:50:50.987Z,0.90
2022-10-05T06:53:34.143Z,0.57
2022-10-05T06:56:31.921Z,0.73
2022-10-05T06:59:24.049Z,0.80
2022-10-05T07:02:17.440Z,0.73
2022-10-05T07:05:00.470Z,0.60
2022-10-05T07:07:52.972Z,0.57
2022-10-05T07:10:45.253Z,0.60
2022-10-05T07:13:36.516Z,0.50
2022-10-05T07:16:37.115Z,0.70
2022-10-05T07:19:44.572Z,0.80
2022-10-05T07:22:39.692Z,0.70
2022-10-05T07:25:25.809Z,0.77
2022-10-05T07:28:20.845Z,0.63
2022-10-05T07:31:12.269Z,0.50
2022-10-05T07:34:01.149Z,0.83
2022-10-05T07:39:10.141Z,0.60
2022-10-05T07:41:48.176Z,0.70
2022-10-05T07:44:27.805Z,0.53
2022-10-05T07:47:16.353Z,0.70
2022-10-05T07:49:50.446Z,0.80
2022-10-05T07:52:38.985Z,0.67
2022-10-05T07:55:25.212Z,0.80
2022-10-05T07:58:11.412Z,0.70
2022-10-05T08:01:20.348Z,0.60
2022-10-05T08:04:03.469Z,0.70
2022-10-05T08:06:54.332Z,0.70
2022-10-05T08:09:57.036Z,0.50
2022-10-05T08:12:33.885Z,0.70
2022-10-05T08:15:20.543Z,0.73
2022-10-05T08:18:06.476Z,1.00
2022-10-05T08:20:48.780Z,0.83
2022-10-05T08:23:44.963Z,0.70
2022-10-05T08:26:36.704Z,0.93
2022-10-05T08:29:22.873Z,1.03
2022-10-05T08:31:56.950Z,0.87
2022-10-05T08:34:48.448Z,0.77
2022-10-05T08:37:28.779Z,0.77
2022-10-05T08:40:19.135Z,0.93
2022-10-05T08:43:02.008Z,1.00
2022-10-05T08:46:17.069Z,0.90
2022-10-05T08:49:34.915Z,0.90
2022-10-05T08:52:29.278Z,0.70
2022-10-05T08:55:12.200Z,1.07
2022-10-05T08:58:03.232Z,0.63
2022-10-05T09:00:40.124Z,0.60
2022-10-05T09:03:38.151Z,0.60
2022-10-05T09:06:52.975Z,1.07
2022-10-05T09:09:27.037Z,0.60
2022-10-05T09:12:21.993Z,0.50
2022-10-05T09:15:27.230Z,1.00
2022-10-05T09:18:12.988Z,0.60
2022-10-05T09:20:55.777Z,1.00
2022-10-05T09:23:43.578Z,0.63
2022-10-05T09:26:47.095Z,0.63
2022-10-05T09:29:35.492Z,0.70
2022-10-05T09:32:34.507Z,0.93
2022-10-05T09:35:29.618Z,0.93
2022-10-05T09:38:25.865Z,1.00
2022-10-05T09:41:19.455Z,1.27
2022-10-05T09:44:19.137Z,1.07
2022-10-05T09:47:15.994Z,1.60
2022-10-05T09:50:33.317Z,1.47
2022-10-05T09:53:22.696Z,0.73
2022-10-05T09:56:30.490Z,1.20
2022-10-05T09:59:36.223Z,0.90
2022-10-05T10:02:26.702Z,0.90
2022-10-05T10:05:13.477Z,1.40
2022-10-05T10:08:13.232Z,1.10
2022-10-05T10:11:10.123Z,1.23
2022-10-05T10:13:47.699Z,0.90
2022-10-05T10:16:27.466Z,1.50
2022-10-05T10:19:45.587Z,1.00
2022-10-05T10:22:43.366Z,1.30
2022-10-05T10:25:53.415Z,1.20
2022-10-05T10:29:00.708Z,1.10
2022-10-05T10:31:54.489Z,0.73
2022-10-05T10:34:46.808Z,0.80
2022-10-05T10:37:40.155Z,1.00
2022-10-05T10:40:35.048Z,0.83
2022-10-05T10:43:50.544Z,0.80
2022-10-05T10:46:36.403Z,0.70
2022-10-05T10:49:28.540Z,0.87
2022-10-05T10:52:34.008Z,0.80
2022-10-05T10:55:14.011Z,0.90
2022-10-05T10:57:59.921Z,0.90
2022-10-05T11:00:57.743Z,0.70
2022-10-05T11:04:06.835Z,1.10
2022-10-05T11:06:49.874Z,0.70
2022-10-05T11:09:52.608Z,1.10
2022-10-05T11:12:50.914Z,0.80
2022-10-05T11:15:45.850Z,0.90
2022-10-05T11:19:02.527Z,0.80
2022-10-05T11:21:55.908Z,1.07
2022-10-05T11:24:44.971Z,0.90
2022-10-05T11:27:34.342Z,0.80
2022-10-05T11:30:37.243Z,0.60
2022-10-05T11:33:14.363Z,0.60
2022-10-05T11:36:40.087Z,0.80
2022-10-05T11:39:42.983Z,0.77
2022-10-05T11:42:35.172Z,0.60
2022-10-05T11:45:12.135Z,0.50
2022-10-05T11:48:15.002Z,0.50
2022-10-05T11:51:05.536Z,0.90
2022-10-05T11:54:09.821Z,0.70
2022-10-05T11:56:49.531Z,0.60
2022-10-05T11:59:46.315Z,0.63
2022-10-05T12:02:36.985Z,0.77
2022-10-05T12:05:51.652Z,0.90
2022-10-05T12:08:37.728Z,0.90
2022-10-05T12:11:53.233Z,1.43
2022-10-05T12:14:26.249Z,1.20
2022-10-05T12:17:03.115Z,1.30
2022-10-05T12:19:42.628Z,1.30
2022-10-05T12:22:34.713Z,1.27
2022-10-05T12:25:30.132Z,1.60
2022-10-05T12:28:10.638Z,1.40
2022-10-05T12:31:07.769Z,1.07
2022-10-05T12:34:07.277Z,1.50
2022-10-05T12:37:25.504Z,0.90
2022-10-05T12:40:23.703Z,1.07
2022-10-05T12:43:26.239Z,1.03
2022-10-05T12:46:03.171Z,1.20
2022-10-05T12:49:13.275Z,1.83
2022-10-05T12:51:59.402Z,1.20
2022-10-05T12:54:44.870Z,1.40
2022-10-05T12:57:39.914Z,1.00
2022-10-05T13:00:23.032Z,1.20
2022-10-05T13:03:04.592Z,1.00
2022-10-05T13:05:38.739Z,1.40
2022-10-05T13:08:21.734Z,1.33
2022-10-05T13:10:59.944Z,1.03
2022-10-05T13:14:10.326Z,1.07
2022-10-05T13:16:56.411Z,1.10
2022-10-05T13:19:45.347Z,1.13
2022-10-05T13:22:40.166Z,1.40
2022-10-05T13:25:27.181Z,1.13
2022-10-05T13:28:22.373Z,1.20
2022-10-05T13:31:25.191Z,1.20
2022-10-05T13:34:08.253Z,0.70
2022-10-05T13:36:57.705Z,1.00
2022-10-05T13:39:48.355Z,1.37
2022-10-05T13:42:37.698Z,1.10
2022-10-05T13:45:27.042Z,0.80
2022-10-05T13:48:03.842Z,1.00
2022-10-05T13:50:46.269Z,1.10
2022-10-05T13:53:31.676Z,0.83
2022-10-05T13:56:05.405Z,1.07
2022-10-05T13:58:51.502Z,1.40
2022-10-05T14:01:28.516Z,1.10
2022-10-05T14:04:24.590Z,1.30
2022-10-05T14:06:54.554Z,0.87
2022-10-05T14:09:36.308Z,1.30
2022-10-05T14:12:16.350Z,1.03
2022-10-05T14:14:50.250Z,1.07
2022-10-05T14:17:36.615Z,1.10
2022-10-05T14:20:25.684Z,1.13
2022-10-05T14:23:02.747Z,1.60
2022-10-05T14:25:34.582Z,1.10
2022-10-05T14:28:11.486Z,1.20
2022-10-05T14:30:40.936Z,1.10
2022-10-05T14:33:17.176Z,1.00
2022-10-05T14:35:56.840Z,0.90
2022-10-05T14:38:36.100Z,0.70
2022-10-05T14:41:13.529Z,1.00
2022-10-05T14:44:08.022Z,1.17
2022-10-05T14:46:39.615Z,1.17
2022-10-05T14:49:21.473Z,1.13
2022-10-05T14:51:53.413Z,0.90
2022-10-05T14:54:49.618Z,0.90
2022-10-05T14:57:58.372Z,1.10
2022-10-05T15:00:28.856Z,1.03
2022-10-05T15:03:13.433Z,1.17
2022-10-05T15:05:53.433Z,0.90
2022-10-05T15:09:16.998Z,1.10
2022-10-05T15:11:55.939Z,0.60
2022-10-05T15:14:29.988Z,1.00
2022-10-05T15:17:03.939Z,1.40
2022-10-05T15:19:46.759Z,1.23
2022-10-05T15:23:02.760Z,1.10
2022-10-05T15:25:40.388Z,0.93
2022-10-05T15:28:32.247Z,1.17
2022-10-05T15:31:06.825Z,1.03
2022-10-05T15:33:57.284Z,1.10
2022-10-05T15:36:45.987Z,0.90
2022-10-05T15:39:43.718Z,1.10
2022-10-05T15:42:20.551Z,0.90
2022-10-05T15:45:32.444Z,0.90
2022-10-05T15:48:21.832Z,0.70
2022-10-05T15:51:15.762Z,0.87
2022-10-05T15:54:22.521Z,0.60
2022-10-05T15:56:56.607Z,0.80
2022-10-05T15:59:59.199Z,0.63
2022-10-05T16:03:13.602Z,1.00
2022-10-05T16:06:14.199Z,0.80
2022-10-05T16:09:10.687Z,1.00
2022-10-05T16:12:05.622Z,0.87
2022-10-05T16:15:00.768Z,0.87
2022-10-05T16:17:52.512Z,0.90
2022-10-05T16:20:47.287Z,0.70
2022-10-05T16:23:51.369Z,1.00
2022-10-05T16:26:34.035Z,0.90
2022-10-05T16:29:16.793Z,0.90
2022-10-05T16:32:02.487Z,0.60
2022-10-05T16:35:17.440Z,0.77
2022-10-05T16:37:54.402Z,0.60
2022-10-05T16:40:41.401Z,0.50
2022-10-05T16:43:25.577Z,0.50
2022-10-05T16:46:22.277Z,0.60
2022-10-05T16:49:27.116Z,0.63
2022-10-05T16:52:08.565Z,0.67
2022-10-05T16:54:50.674Z,0.70
2022-10-05T16:57:37.090Z,0.53
2022-10-05T17:00:25.898Z,0.60
2022-10-05T17:03:20.816Z,0.40
2022-10-05T17:06:06.762Z,0.50
2022-10-05T17:08:55.413Z,0.53
2022-10-05T17:11:50.487Z,0.60
2022-10-05T17:14:57.092Z,0.70
2022-10-05T17:17:31.114Z,0.90
2022-10-05T17:20:42.395Z,1.23
2022-10-05T17:23:34.673Z,1.00
2022-10-05T17:26:11.411Z,0.70
2022-10-05T17:29:04.829Z,0.90
2022-10-05T17:31:55.342Z,1.00
2022-10-05T17:34:29.369Z,0.93
2022-10-05T17:37:06.286Z,0.70
2022-10-05T17:39:57.490Z,0.80
2022-10-05T17:42:37.276Z,0.80
2022-10-05T17:45:17.401Z,0.67
2022-10-05T17:48:04.731Z,0.77
2022-10-05T17:51:07.517Z,0.80
2022-10-05T17:54:07.061Z,0.73
2022-10-05T17:56:54.593Z,0.30
2022-10-05T17:59:56.841Z,0.83
2022-10-05T18:02:38.540Z,0.80
2022-10-05T18:05:25.744Z,0.73
2022-10-05T18:08:19.639Z,0.50
2022-10-05T18:11:17.352Z,1.03
2022-10-05T18:17:04.825Z,0.90
2022-10-05T18:19:34.431Z,1.63
2022-10-05T18:22:17.059Z,1.50
2022-10-05T18:25:13.366Z,1.80
2022-10-05T18:27:53.603Z,2.53
2022-10-05T18:30:26.958Z,3.00
2022-10-05T18:33:37.575Z,2.17
2022-10-05T18:36:57.321Z,1.90
2022-10-05T18:39:58.011Z,1.40
2022-10-05T18:42:50.251Z,1.03
2022-10-05T18:46:01.991Z,1.20
2022-10-05T18:48:42.668Z,1.40
2022-10-05T18:51:42.091Z,1.30
2022-10-05T18:54:31.237Z,2.03
2022-10-05T18:57:24.499Z,2.20
2022-10-05T19:00:01.006Z,1.37
2022-10-05T19:02:43.245Z,1.30
2022-10-05T19:05:48.788Z,1.30
2022-10-05T19:08:47.436Z,1.40
2022-10-05T19:11:48.146Z,2.37
2022-10-05T19:14:39.575Z,3.00
2022-10-05T19:17:35.639Z,3.60
2022-10-05T19:20:29.403Z,3.20
2022-10-05T19:23:19.962Z,3.47
2022-10-05T19:25:54.837Z,3.63
2022-10-05T19:28:38.018Z,4.80
2022-10-05T19:31:33.505Z,3.40
2022-10-05T19:34:27.902Z,3.10
2022-10-05T19:37:10.715Z,2.60
2022-10-05T19:39:59.627Z,2.03
2022-10-05T19:43:12.647Z,3.27
2022-10-05T19:46:01.806Z,3.07
2022-10-05T19:48:45.099Z,4.37
2022-10-05T19:51:29.216Z,4.10
2022-10-05T19:54:11.417Z,2.87
2022-10-05T19:56:54.055Z,2.30
2022-10-05T19:59:31.190Z,2.50
2022-10-05T20:02:02.983Z,2.40
2022-10-05T20:04:43.183Z,2.20
2022-10-05T20:07:20.854Z,2.40
2022-10-05T20:10:03.052Z,1.60
2022-10-05T20:13:00.135Z,1.70
2022-10-05T20:15:51.305Z,1.77
2022-10-05T20:19:00.042Z,1.10
2022-10-05T20:21:55.762Z,2.33
2022-10-05T20:24:29.515Z,1.70
2022-10-05T20:27:02.713Z,2.07
2022-10-05T20:29:40.865Z,3.03
2022-10-05T20:32:14.209Z,2.10
2022-10-05T20:34:46.765Z,1.83
2022-10-05T20:37:20.322Z,1.70
2022-10-05T20:39:51.386Z,1.30
2022-10-05T20:42:23.746Z,1.30
2022-10-05T20:44:56.849Z,1.10
2022-10-05T20:47:24.706Z,1.00
2022-10-05T20:49:54.605Z,1.03
2022-10-05T20:52:24.219Z,1.10
2022-10-05T20:54:55.351Z,1.20
2022-10-05T20:57:24.800Z,1.20
2022-10-05T20:59:54.388Z,1.30
2022-10-05T21:02:23.837Z,1.47
2022-10-05T21:04:53.341Z,1.40
2022-10-05T21:07:23.487Z,1.33
2022-10-05T21:09:53.812Z,1.93
2022-10-05T21:12:23.258Z,1.80
2022-10-05T21:14:52.712Z,1.80
2022-10-05T21:17:22.155Z,1.60
2022-10-05T21:19:52.614Z,2.00
2022-10-05T21:22:22.431Z,1.87
2022-10-05T21:24:51.887Z,1.90
2022-10-05T21:27:21.346Z,1.50
2022-10-05T21:29:51.366Z,1.67
2022-10-05T21:32:20.817Z,1.30
2022-10-05T21:34:50.279Z,1.10
2022-10-05T21:37:19.997Z,0.63
2022-10-05T21:39:49.440Z,0.80
2022-10-05T21:42:18.910Z,0.80
2022-10-05T21:44:48.350Z,0.70
2022-10-05T21:47:17.889Z,0.70
2022-10-05T21:49:47.334Z,0.60
2022-10-05T21:52:16.874Z,0.77
2022-10-05T21:54:46.781Z,0.60
2022-10-05T21:57:16.581Z,0.43
2022-10-05T21:59:46.762Z,0.63
2022-10-05T22:02:16.351Z,0.50
2022-10-05T22:04:45.790Z,0.80
2022-10-05T22:07:20.603Z,0.60
2022-10-05T22:09:52.148Z,0.60
2022-10-05T22:12:23.520Z,0.30
2022-10-05T22:14:52.962Z,0.70
2022-10-05T22:17:30.904Z,0.60
2022-10-05T22:20:02.059Z,0.40
2022-10-05T22:22:33.051Z,0.57
2022-10-05T22:25:02.564Z,0.30
2022-10-05T22:27:33.228Z,0.50
2022-10-05T22:30:03.809Z,0.40
2022-10-05T22:32:33.635Z,0.43
2022-10-05T22:35:05.011Z,0.40
2022-10-05T22:37:35.893Z,0.50
2022-10-05T22:40:08.645Z,0.40
2022-10-05T22:42:40.371Z,0.30
2022-10-05T22:45:10.516Z,0.50
2022-10-05T22:47:40.245Z,0.33
2022-10-05T22:50:10.313Z,0.40
2022-10-05T22:52:39.766Z,0.20
2022-10-05T22:55:09.685Z,0.40
2022-10-05T22:57:43.428Z,0.47
2022-10-05T23:00:14.178Z,0.30
2022-10-05T23:02:45.950Z,0.40
2022-10-05T23:05:17.038Z,0.30
2022-10-05T23:07:47.525Z,0.50
2022-10-05T23:10:20.393Z,0.50
2022-10-05T23:13:00.995Z,0.60
2022-10-05T23:15:29.892Z,0.40
2022-10-05T23:17:59.350Z,0.37
2022-10-05T23:20:29.080Z,0.30
2022-10-05T23:23:00.855Z,0.50
2022-10-05T23:25:30.322Z,0.43
2022-10-05T23:27:59.778Z,0.40
2022-10-05T23:30:29.282Z,0.53
2022-10-05T23:32:58.755Z,0.40
2022-10-05T23:35:28.201Z,0.40
2022-10-05T23:37:57.649Z,0.50
2022-10-05T23:40:27.158Z,0.40
2022-10-05T23:42:56.617Z,0.50
2022-10-05T23:45:26.188Z,0.50
2022-10-05T23:47:56.122Z,0.40
2022-10-05T23:50:26.928Z,0.60
2022-10-05T23:52:56.379Z,0.50
2022-10-05T23:55:25.825Z,0.70
2022-10-05T23:57:55.289Z,0.57
